createdAt,value
2022-08-17T00:00:43.514Z,101566.56
2022-08-17T00:03:14.123Z,101573.53
2022-08-17T00:06:12.285Z,101572.53
2022-08-17T00:08:43.321Z,101582.16
2022-08-17T00:11:26.457Z,101578.75
2022-08-17T00:13:57.529Z,101587.66
2022-08-17T00:16:55.893Z,101590.59
2022-08-17T00:19:23.232Z,101590.84
2022-08-17T00:22:31.733Z,101588.19
2022-08-17T00:24:40.815Z,101593.81
2022-08-17T00:27:08.543Z,101587.59
2022-08-17T00:29:36.119Z,101586.63
2022-08-17T00:33:13.692Z,101591.44
2022-08-17T00:34:51.787Z,101590.34
2022-08-17T00:37:19.345Z,101591.44
2022-08-17T00:39:46.929Z,101599.50
2022-08-17T00:42:18.029Z,101597.53
2022-08-17T00:44:46.153Z,101598.38
2022-08-17T00:47:13.798Z,101596.56
2022-08-17T00:49:41.465Z,101593.53
2022-08-17T00:52:16.758Z,101599.19
2022-08-17T00:54:49.353Z,101596.16
2022-08-17T00:57:36.755Z,101608.41
2022-08-17T01:00:13.543Z,101606.00
2022-08-17T01:02:44.377Z,101609.09
2022-08-17T01:05:23.793Z,101604.22
2022-08-17T01:07:54.366Z,101605.34
2022-08-17T01:11:00.004Z,101603.75
2022-08-17T01:13:16.626Z,101603.16
2022-08-17T01:15:50.640Z,101602.56
2022-08-17T01:18:18.670Z,101616.97
2022-08-17T01:20:53.747Z,101616.13
2022-08-17T01:23:24.289Z,101617.97
2022-08-17T01:25:55.635Z,101621.25
2022-08-17T01:28:53.426Z,101622.22
2022-08-17T01:31:15.218Z,101617.97
2022-08-17T01:33:42.804Z,101618.94
2022-08-17T01:36:10.453Z,101617.50
2022-08-17T01:38:38.706Z,101624.09
2022-08-17T01:41:13.232Z,101620.94
2022-08-17T01:43:54.036Z,101628.13
2022-08-17T01:46:27.671Z,101617.88
2022-08-17T01:48:56.478Z,101623.25
2022-08-17T01:51:29.443Z,101625.19
2022-08-17T01:54:01.192Z,101629.84
2022-08-17T01:56:30.438Z,101624.72
2022-08-17T01:58:58.516Z,101631.31
2022-08-17T02:01:30.854Z,101643.91
2022-08-17T02:04:01.356Z,101638.63
2022-08-17T02:06:52.830Z,101643.28
2022-08-17T02:09:23.426Z,101650.25
2022-08-17T02:11:56.320Z,101650.94
2022-08-17T02:14:25.010Z,101655.34
2022-08-17T02:16:53.788Z,101650.94
2022-08-17T02:19:22.083Z,101655.47
2022-08-17T02:21:51.629Z,101659.84
2022-08-17T02:24:59.360Z,101655.63
2022-08-17T02:27:11.191Z,101646.97
2022-08-17T02:29:38.779Z,101653.44
2022-08-17T02:32:06.622Z,101647.47
2022-08-17T02:34:34.174Z,101661.00
2022-08-17T02:37:01.758Z,101661.72
2022-08-17T02:39:29.267Z,101662.69
2022-08-17T02:42:01.640Z,101663.31
2022-08-17T02:44:39.975Z,101663.41
2022-08-17T02:47:09.995Z,101650.25
2022-08-17T02:49:37.983Z,101656.72
2022-08-17T02:52:07.733Z,101659.53
2022-08-17T02:54:40.591Z,101661.38
2022-08-17T02:57:10.635Z,101660.38
2022-08-17T02:59:39.665Z,101655.75
2022-08-17T03:02:10.108Z,101661.84
2022-08-17T03:04:38.158Z,101654.63
2022-08-17T03:07:06.764Z,101661.59
2022-08-17T03:09:34.579Z,101650.75
2022-08-17T03:12:07.741Z,101654.38
2022-08-17T03:14:41.727Z,101650.00
2022-08-17T03:17:10.727Z,101662.69
2022-08-17T03:19:41.560Z,101662.09
2022-08-17T03:22:36.495Z,101670.38
2022-08-17T03:24:58.834Z,101667.94
2022-08-17T03:27:26.430Z,101664.66
2022-08-17T03:29:54.452Z,101667.88
2022-08-17T03:32:21.987Z,101662.59
2022-08-17T03:34:49.607Z,101667.34
2022-08-17T03:37:17.312Z,101666.84
2022-08-17T03:39:44.934Z,101675.38
2022-08-17T03:42:32.071Z,101659.56
2022-08-17T03:45:02.234Z,101670.28
2022-08-17T03:47:49.054Z,101674.06
2022-08-17T03:50:36.652Z,101667.84
2022-08-17T03:53:30.260Z,101674.06
2022-08-17T03:56:21.540Z,101671.38
2022-08-17T03:58:50.215Z,101670.63
2022-08-17T04:01:18.172Z,101680.50
2022-08-17T04:03:45.979Z,101676.84
2022-08-17T04:06:15.270Z,101683.69
2022-08-17T04:08:42.775Z,101681.84
2022-08-17T04:11:10.873Z,101686.38
2022-08-17T04:13:38.491Z,101700.00
2022-08-17T04:16:06.180Z,101689.53
2022-08-17T04:18:33.723Z,101691.34
2022-08-17T04:21:01.480Z,101695.75
2022-08-17T04:23:33.708Z,101698.19
2022-08-17T04:26:01.608Z,101695.38
2022-08-17T04:28:30.091Z,101696.94
2022-08-17T04:30:57.738Z,101690.50
2022-08-17T04:33:27.405Z,101691.09
2022-08-17T04:36:01.198Z,101700.25
2022-08-17T04:38:31.957Z,101694.03
2022-08-17T04:41:20.714Z,101704.75
2022-08-17T04:43:49.536Z,101704.16
2022-08-17T04:46:19.407Z,101705.13
2022-08-17T04:48:50.877Z,101704.50
2022-08-17T04:51:27.222Z,101704.38
2022-08-17T04:53:58.420Z,101703.31
2022-08-17T04:56:27.733Z,101702.56
2022-08-17T04:58:58.719Z,101701.94
2022-08-17T05:01:29.945Z,101703.66
2022-08-17T05:04:00.746Z,101714.38
2022-08-17T05:06:49.532Z,101711.81
2022-08-17T05:09:18.385Z,101715.34
2022-08-17T05:11:46.793Z,101715.44
2022-08-17T05:14:14.954Z,101717.44
2022-08-17T05:16:42.521Z,101720.81
2022-08-17T05:19:10.107Z,101719.88
2022-08-17T05:21:37.693Z,101725.09
2022-08-17T05:24:13.519Z,101729.34
2022-08-17T05:26:53.145Z,101741.69
2022-08-17T05:29:22.861Z,101737.03
2022-08-17T05:32:38.392Z,101738.84
2022-08-17T05:35:02.231Z,101741.78
2022-08-17T05:37:29.763Z,101740.59
2022-08-17T05:39:57.513Z,101737.78
2022-08-17T05:42:25.141Z,101740.22
2022-08-17T05:44:52.679Z,101743.97
2022-08-17T05:47:23.627Z,101747.66
2022-08-17T05:49:51.465Z,101746.06
2022-08-17T05:52:50.363Z,101755.06
2022-08-17T05:55:31.957Z,101756.91
2022-08-17T05:58:46.369Z,101749.59
2022-08-17T06:01:33.581Z,101744.97
2022-08-17T06:04:16.741Z,101748.75
2022-08-17T06:07:01.869Z,101748.63
2022-08-17T06:09:46.262Z,101755.56
2022-08-17T06:12:29.125Z,101764.25
2022-08-17T06:15:10.754Z,101766.09
2022-08-17T06:17:39.912Z,101766.81
2022-08-17T06:20:15.561Z,101766.09
2022-08-17T06:22:53.856Z,101761.81
2022-08-17T06:25:31.998Z,101771.56
2022-08-17T06:28:08.684Z,101767.53
2022-08-17T06:31:00.154Z,101773.28
2022-08-17T06:33:35.331Z,101767.28
2022-08-17T06:36:09.737Z,101774.47
2022-08-17T06:39:09.332Z,101768.75
2022-08-17T06:42:07.334Z,101762.94
2022-08-17T06:44:51.153Z,101768.16
2022-08-17T06:47:37.798Z,101777.41
2022-08-17T06:50:17.825Z,101770.59
2022-08-17T06:52:54.132Z,101770.59
2022-08-17T06:55:34.459Z,101777.53
2022-08-17T06:58:15.657Z,101769.50
2022-08-17T07:00:47.349Z,101772.03
2022-08-17T07:03:29.383Z,101770.84
2022-08-17T07:06:18.502Z,101778.28
2022-08-17T07:08:49.907Z,101784.13
2022-08-17T07:11:26.165Z,101790.44
2022-08-17T07:14:18.392Z,101786.44
2022-08-17T07:16:50.544Z,101788.84
2022-08-17T07:19:22.674Z,101790.69
2022-08-17T07:22:14.404Z,101800.72
2022-08-17T07:24:52.878Z,101800.81
2022-08-17T07:27:27.611Z,101804.47
2022-08-17T07:30:06.790Z,101802.41
2022-08-17T07:32:45.549Z,101806.69
2022-08-17T07:35:22.199Z,101802.28
2022-08-17T07:38:24.294Z,101816.09
2022-08-17T07:41:03.250Z,101810.19
2022-08-17T07:43:40.309Z,101804.09
2022-08-17T07:46:38.304Z,101804.78
2022-08-17T07:49:09.013Z,101814.09
2022-08-17T07:51:44.283Z,101807.31
2022-08-17T07:54:33.672Z,101821.63
2022-08-17T07:57:29.811Z,101816.84
2022-08-17T08:00:01.508Z,101812.16
2022-08-17T08:02:40.319Z,101811.88
2022-08-17T08:05:31.709Z,101815.13
2022-08-17T08:08:25.365Z,101809.13
2022-08-17T08:11:30.175Z,101809.63
2022-08-17T08:14:20.680Z,101814.81
2022-08-17T08:17:05.104Z,101807.69
2022-08-17T08:19:33.747Z,101809.25
2022-08-17T08:22:22.134Z,101802.75
2022-08-17T08:25:29.992Z,101809.09
2022-08-17T08:28:20.914Z,101803.25
2022-08-17T08:30:57.585Z,101807.34
2022-08-17T08:33:39.882Z,101809.03
2022-08-17T08:36:13.644Z,101813.53
2022-08-17T08:39:07.479Z,101805.13
2022-08-17T08:42:07.779Z,101810.44
2022-08-17T08:44:59.926Z,101805.59
2022-08-17T08:47:57.445Z,101813.75
2022-08-17T08:50:38.709Z,101812.75
2022-08-17T08:53:09.288Z,101817.69
2022-08-17T08:55:52.333Z,101819.03
2022-08-17T08:58:41.273Z,101814.22
2022-08-17T09:01:20.909Z,101812.84
2022-08-17T09:03:54.055Z,101809.28
2022-08-17T09:06:28.682Z,101807.38
2022-08-17T09:09:17.021Z,101811.78
2022-08-17T09:12:02.378Z,101809.72
2022-08-17T09:14:45.382Z,101801.59
2022-08-17T09:17:20.521Z,101797.81
2022-08-17T09:20:11.277Z,101798.97
2022-08-17T09:22:51.598Z,101799.44
2022-08-17T09:25:28.032Z,101802.84
2022-08-17T09:28:00.510Z,101790.13
2022-08-17T09:30:45.629Z,101795.44
2022-08-17T09:33:22.909Z,101792.38
2022-08-17T09:36:00.205Z,101800.16
2022-08-17T09:38:40.582Z,101800.28
2022-08-17T09:41:22.243Z,101790.97
2022-08-17T09:44:01.512Z,101790.06
2022-08-17T09:46:36.008Z,101790.78
2022-08-17T09:49:15.164Z,101796.34
2022-08-17T09:51:54.429Z,101789.22
2022-08-17T09:54:39.210Z,101786.47
2022-08-17T09:57:30.392Z,101781.84
2022-08-17T10:00:10.158Z,101787.13
2022-08-17T10:02:53.655Z,101788.59
2022-08-17T10:05:39.958Z,101775.97
2022-08-17T10:08:10.711Z,101781.19
2022-08-17T10:11:07.397Z,101790.97
2022-08-17T10:13:40.253Z,101775.91
2022-08-17T10:16:38.881Z,101780.69
2022-08-17T10:19:06.568Z,101783.59
2022-08-17T10:22:00.952Z,101787.88
2022-08-17T10:25:23.205Z,101789.91
2022-08-17T10:27:57.839Z,101768.69
2022-08-17T10:30:33.337Z,101760.53
2022-08-17T10:33:05.348Z,101759.88
2022-08-17T10:35:45.210Z,101765.34
2022-08-17T10:38:28.659Z,101750.84
2022-08-17T10:40:57.343Z,101754.81
2022-08-17T10:43:35.802Z,101747.09
2022-08-17T10:46:31.864Z,101747.31
2022-08-17T10:49:18.076Z,101748.69
2022-08-17T10:51:48.361Z,101753.63
2022-08-17T10:57:33.894Z,101758.25
2022-08-17T11:00:18.427Z,101757.50
2022-08-17T11:02:52.384Z,101762.50
2022-08-17T11:05:58.937Z,101767.75
2022-08-17T11:09:01.167Z,101755.56
2022-08-17T11:12:07.302Z,101757.03
2022-08-17T11:15:03.557Z,101752.69
2022-08-17T11:17:53.019Z,101757.91
2022-08-17T11:21:20.069Z,101748.38
2022-08-17T11:24:31.017Z,101753.69
2022-08-17T11:27:00.772Z,101757.72
2022-08-17T11:30:05.234Z,101753.06
2022-08-17T11:32:47.457Z,101746.44
2022-08-17T11:35:21.792Z,101750.22
2022-08-17T11:38:16.210Z,101752.38
2022-08-17T11:41:14.593Z,101740.72
2022-08-17T11:44:12.871Z,101737.91
2022-08-17T11:47:16.842Z,101734.78
2022-08-17T11:50:23.454Z,101730.72
2022-08-17T11:52:53.463Z,101738.84
2022-08-17T11:55:37.538Z,101742.81
2022-08-17T11:58:42.702Z,101747.91
2022-08-17T12:01:23.682Z,101748.16
2022-08-17T12:03:59.423Z,101738.84
2022-08-17T12:06:29.658Z,101735.84
2022-08-17T12:09:19.738Z,101734.53
2022-08-17T12:12:12.037Z,101729.75
2022-08-17T12:17:50.268Z,101726.75
2022-08-17T12:20:37.276Z,101733.50
2022-08-17T12:23:32.108Z,101727.22
2022-08-17T12:26:24.955Z,101721.53
2022-08-17T12:28:58.710Z,101724.78
2022-08-17T12:31:49.182Z,101714.34
2022-08-17T12:34:23.664Z,101716.38
2022-08-17T12:36:54.482Z,101704.66
2022-08-17T12:39:25.191Z,101691.59
2022-08-17T12:42:01.913Z,101691.81
2022-08-17T12:44:34.656Z,101696.28
2022-08-17T12:47:10.768Z,101689.91
2022-08-17T12:49:41.626Z,101684.44
2022-08-17T12:52:18.543Z,101683.06
2022-08-17T12:55:07.435Z,101673.84
2022-08-17T12:57:49.234Z,101669.03
2022-08-17T13:00:38.263Z,101672.72
2022-08-17T13:03:09.733Z,101671.59
2022-08-17T13:05:53.855Z,101677.22
2022-08-17T13:08:22.712Z,101675.47
2022-08-17T13:11:02.615Z,101657.75
2022-08-17T13:13:34.128Z,101668.63
2022-08-17T13:16:06.144Z,101680.00
2022-08-17T13:18:44.213Z,101683.22
2022-08-17T13:21:23.730Z,101686.59
2022-08-17T13:24:17.309Z,101686.19
2022-08-17T13:26:47.120Z,101683.38
2022-08-17T13:29:39.001Z,101680.50
2022-08-17T13:32:13.457Z,101673.66
2022-08-17T13:35:15.444Z,101664.59
2022-08-17T13:38:01.389Z,101664.38
2022-08-17T13:40:32.391Z,101659.19
2022-08-17T13:43:00.032Z,101661.44
2022-08-17T13:45:35.037Z,101659.38
2022-08-17T13:48:08.887Z,101669.25
2022-08-17T13:51:07.036Z,101654.03
2022-08-17T13:53:37.782Z,101652.38
2022-08-17T13:56:37.437Z,101651.41
2022-08-17T13:59:06.771Z,101646.63
2022-08-17T14:01:53.478Z,101640.03
2022-08-17T14:04:28.291Z,101638.69
2022-08-17T14:07:04.297Z,101624.81
2022-08-17T14:09:37.550Z,101624.50
2022-08-17T14:12:10.742Z,101620.97
2022-08-17T14:14:39.017Z,101621.69
2022-08-17T14:17:07.850Z,101620.75
2022-08-17T14:19:36.173Z,101612.97
2022-08-17T14:22:06.714Z,101602.47
2022-08-17T14:24:44.024Z,101599.47
2022-08-17T14:27:12.705Z,101597.09
2022-08-17T14:29:41.447Z,101593.34
2022-08-17T14:32:20.110Z,101592.81
2022-08-17T14:34:49.721Z,101586.31
2022-08-17T14:37:18.844Z,101583.03
2022-08-17T14:39:46.635Z,101582.50
2022-08-17T14:42:15.612Z,101574.69
2022-08-17T14:44:43.305Z,101568.31
2022-08-17T14:47:15.006Z,101575.16
2022-08-17T14:49:43.817Z,101563.44
2022-08-17T14:52:21.749Z,101565.53
2022-08-17T14:54:53.831Z,101556.06
2022-08-17T14:57:33.487Z,101558.94
2022-08-17T15:00:02.401Z,101561.53
2022-08-17T15:02:31.029Z,101567.19
2022-08-17T15:05:05.220Z,101571.84
2022-08-17T15:07:33.089Z,101566.66
2022-08-17T15:10:02.008Z,101563.81
2022-08-17T15:12:33.742Z,101571.81
2022-08-17T15:15:06.973Z,101564.41
2022-08-17T15:17:44.353Z,101567.91
2022-08-17T15:20:16.526Z,101566.56
2022-08-17T15:22:45.837Z,101563.88
2022-08-17T15:25:14.426Z,101568.34
2022-08-17T15:27:42.643Z,101561.41
2022-08-17T15:30:11.800Z,101565.44
2022-08-17T15:32:46.825Z,101562.00
2022-08-17T15:35:27.054Z,101560.53
2022-08-17T15:38:07.977Z,101555.81
2022-08-17T15:40:40.265Z,101556.88
2022-08-17T15:43:11.560Z,101554.38
2022-08-17T15:45:40.185Z,101544.34
2022-08-17T15:48:08.027Z,101539.13
2022-08-17T15:50:35.990Z,101534.03
2022-08-17T15:53:05.092Z,101536.78
2022-08-17T15:55:33.521Z,101527.69
2022-08-17T15:58:01.396Z,101535.34
2022-08-17T16:00:30.089Z,101526.88
2022-08-17T16:03:45.301Z,101527.06
2022-08-17T16:05:50.269Z,101527.91
2022-08-17T16:08:21.375Z,101524.00
2022-08-17T16:10:50.274Z,101535.88
2022-08-17T16:13:19.171Z,101528.81
2022-08-17T16:15:56.774Z,101529.34
2022-08-17T16:18:27.512Z,101529.19
2022-08-17T16:20:57.328Z,101528.34
2022-08-17T16:23:25.009Z,101531.22
2022-08-17T16:25:54.248Z,101528.56
2022-08-17T16:28:29.863Z,101523.66
2022-08-17T16:31:07.977Z,101520.81
2022-08-17T16:33:37.764Z,101520.50
2022-08-17T16:36:09.644Z,101510.88
2022-08-17T16:38:38.625Z,101509.03
2022-08-17T16:41:06.831Z,101505.66
2022-08-17T16:43:35.305Z,101504.13
2022-08-17T16:46:02.869Z,101506.00
2022-08-17T16:48:30.865Z,101501.41
2022-08-17T16:51:03.596Z,101499.88
2022-08-17T16:53:32.265Z,101498.59
2022-08-17T16:55:59.958Z,101501.66
2022-08-17T16:58:27.589Z,101493.84
2022-08-17T17:00:59.735Z,101482.69
2022-08-17T17:03:31.236Z,101487.25
2022-08-17T17:06:14.379Z,101473.16
2022-08-17T17:08:49.440Z,101483.31
2022-08-17T17:11:30.225Z,101473.81
2022-08-17T17:14:02.051Z,101476.16
2022-08-17T17:16:29.737Z,101475.88
2022-08-17T17:19:12.457Z,101474.00
2022-08-17T17:21:59.520Z,101474.03
2022-08-17T17:24:50.106Z,101469.31
2022-08-17T17:27:23.546Z,101463.09
2022-08-17T17:30:01.567Z,101467.13
2022-08-17T17:32:39.291Z,101456.50
2022-08-17T17:35:32.805Z,101452.78
2022-08-17T17:38:14.093Z,101450.88
2022-08-17T17:40:50.262Z,101446.47
2022-08-17T17:43:38.386Z,101453.44
2022-08-17T17:46:29.259Z,101447.16
2022-08-17T17:48:57.944Z,101447.16
2022-08-17T17:52:06.806Z,101444.81
2022-08-17T17:54:39.126Z,101440.91
2022-08-17T17:57:27.755Z,101448.84
2022-08-17T18:00:17.047Z,101454.94
2022-08-17T18:02:59.446Z,101445.13
2022-08-17T18:05:34.060Z,101444.31
2022-08-17T18:08:34.720Z,101447.84
2022-08-17T18:11:35.098Z,101448.38
2022-08-17T18:14:24.469Z,101452.75
2022-08-17T18:16:58.719Z,101448.16
2022-08-17T18:19:29.161Z,101453.91
2022-08-17T18:22:19.389Z,101461.72
2022-08-17T18:24:55.934Z,101449.50
2022-08-17T18:27:23.729Z,101451.88
2022-08-17T18:29:56.929Z,101453.91
2022-08-17T18:32:41.488Z,101450.69
2022-08-17T18:35:09.215Z,101454.41
2022-08-17T18:37:53.555Z,101457.25
2022-08-17T18:40:26.669Z,101454.41
2022-08-17T18:43:53.810Z,101458.97
2022-08-17T18:46:35.147Z,101462.00
2022-08-17T18:49:20.573Z,101465.03
2022-08-17T18:51:48.263Z,101464.34
2022-08-17T18:54:24.696Z,101455.56
2022-08-17T18:56:55.811Z,101462.81
2022-08-17T18:59:27.077Z,101454.16
2022-08-17T19:02:36.057Z,101460.22
2022-08-17T19:05:09.463Z,101456.84
2022-08-17T19:07:46.981Z,101460.03
2022-08-17T19:10:31.975Z,101459.19
2022-08-17T19:13:24.915Z,101464.25
2022-08-17T19:16:21.070Z,101449.34
2022-08-17T19:19:08.505Z,101458.97
2022-08-17T19:21:42.285Z,101451.66
2022-08-17T19:24:12.486Z,101455.72
2022-08-17T19:26:54.051Z,101449.41
2022-08-17T19:29:34.205Z,101461.19
2022-08-17T19:32:02.391Z,101452.22
2022-08-17T19:34:34.086Z,101447.28
2022-08-17T19:37:29.385Z,101448.41
2022-08-17T19:39:57.085Z,101449.88
2022-08-17T19:42:49.861Z,101442.97
2022-08-17T19:45:33.104Z,101445.56
2022-08-17T19:48:12.460Z,101456.53
2022-08-17T19:50:55.305Z,101457.84
2022-08-17T19:54:07.709Z,101447.66
2022-08-17T19:56:58.564Z,101443.47
2022-08-17T19:59:49.562Z,101442.75
2022-08-17T20:02:41.799Z,101441.69
2022-08-17T20:05:19.977Z,101439.78
2022-08-17T20:07:55.933Z,101441.25
2022-08-17T20:10:34.389Z,101434.47
2022-08-17T20:13:07.762Z,101426.31
2022-08-17T20:15:40.133Z,101432.63
2022-08-17T20:18:16.951Z,101426.00
2022-08-17T20:20:58.482Z,101423.78
2022-08-17T20:23:28.898Z,101430.28
2022-08-17T20:26:10.222Z,101429.19
2022-08-17T20:28:41.153Z,101432.19
2022-08-17T20:31:46.076Z,101418.72
2022-08-17T20:34:33.627Z,101419.69
2022-08-17T20:37:10.830Z,101425.94
2022-08-17T20:39:44.300Z,101424.53
2022-08-17T20:42:30.499Z,101418.75
2022-08-17T20:45:05.774Z,101416.06
2022-08-17T20:48:15.149Z,101418.19
2022-08-17T20:50:44.041Z,101422.34
2022-08-17T20:53:32.375Z,101418.97
2022-08-17T20:55:59.971Z,101418.41
2022-08-17T20:58:31.172Z,101414.88
2022-08-17T21:00:59.167Z,101415.88
2022-08-17T21:03:47.929Z,101421.28
2022-08-17T21:06:21.320Z,101418.59
2022-08-17T21:09:15.074Z,101406.38
2022-08-17T21:12:03.733Z,101401.28
2022-08-17T21:14:41.741Z,101405.00
2022-08-17T21:17:38.898Z,101407.53
2022-08-17T21:20:14.632Z,101409.38
2022-08-17T21:22:56.621Z,101401.69
2022-08-17T21:25:49.881Z,101394.75
2022-08-17T21:28:33.842Z,101399.59
2022-08-17T21:31:09.021Z,101393.91
2022-08-17T21:33:39.845Z,101388.81
2022-08-17T21:36:11.608Z,101386.59
2022-08-17T21:38:48.859Z,101382.66
2022-08-17T21:41:30.980Z,101388.19
2022-08-17T21:44:18.793Z,101381.09
2022-08-17T21:46:49.533Z,101380.41
2022-08-17T21:49:21.300Z,101392.06
2022-08-17T21:51:54.860Z,101384.94
2022-08-17T21:54:42.873Z,101380.25
2022-08-17T21:57:21.037Z,101367.09
2022-08-17T21:59:55.321Z,101381.94
2022-08-17T22:02:31.129Z,101376.44
2022-08-17T22:05:02.332Z,101375.59
2022-08-17T22:07:48.662Z,101372.19
2022-08-17T22:10:45.690Z,101375.59
2022-08-17T22:13:16.810Z,101367.63
2022-08-17T22:15:48.519Z,101366.09
2022-08-17T22:18:28.893Z,101362.47
2022-08-17T22:21:01.988Z,101352.31
2022-08-17T22:23:54.117Z,101342.81
2022-08-17T22:26:24.628Z,101347.66
2022-08-17T22:28:56.610Z,101343.25
2022-08-17T22:31:27.204Z,101337.50
2022-08-17T22:33:57.849Z,101331.41
2022-08-17T22:36:35.587Z,101330.69
2022-08-17T22:39:09.543Z,101331.72
2022-08-17T22:42:00.244Z,101324.78
2022-08-17T22:44:32.080Z,101325.63
2022-08-17T22:47:20.675Z,101325.06
2022-08-17T22:50:00.280Z,101323.81
2022-08-17T22:52:35.416Z,101329.81
2022-08-17T22:55:30.845Z,101326.41
2022-08-17T22:58:18.534Z,101320.03
2022-08-17T23:00:48.956Z,101320.31
2022-08-17T23:03:19.032Z,101306.19
2022-08-17T23:06:08.657Z,101301.94
2022-08-17T23:08:51.433Z,101296.00
2022-08-17T23:11:19.309Z,101296.41
2022-08-17T23:14:04.402Z,101289.63
2022-08-17T23:16:32.900Z,101288.09
2022-08-17T23:19:00.437Z,101287.25
2022-08-17T23:21:31.418Z,101277.47
2022-08-17T23:24:06.875Z,101273.09
2022-08-17T23:26:39.444Z,101280.00
2022-08-17T23:29:07.894Z,101273.94
2022-08-17T23:31:37.341Z,101276.63
2022-08-17T23:34:10.070Z,101267.72
2022-08-17T23:36:38.526Z,101263.47
2022-08-17T23:39:07.038Z,101268.31
2022-08-17T23:41:38.685Z,101265.75
2022-08-17T23:44:07.003Z,101264.91
2022-08-17T23:46:34.755Z,101267.47
2022-08-17T23:49:03.330Z,101263.06
2022-08-17T23:51:35.767Z,101251.34
2022-08-17T23:54:12.654Z,101246.94
2022-08-17T23:56:45.623Z,101246.94
2022-08-17T23:59:20.965Z,101254.88
